AirNav   Bose Proflight Series 2 Wireless viation Headset
 
 1316 users online  

34OR Providence Portland Medical Center Heliport
Portland, Oregon, USA

GOING TO PORTLAND?


FAA INFORMATION EFFECTIVE 10 OCTOBER 2019

Location

FAA Identifier: 34OR
Lat/Long: 45-31-40.8500N 122-36-43.5300W
45-31.680833N 122-36.725500W
45.5280139,-122.6120917
(estimated)
Elevation: 234 ft. / 71 m (estimated)
Variation: 19E (1985)
From city: 4 miles E of PORTLAND, OR
Time zone: UTC -7 (UTC -8 during Standard Time)
Zip code: 97213

Heliport Operations

Heliport use: Private use, MEDICAL USE.
Activation date: 10/1982
Control tower: no
ARTCC: SEATTLE CENTER
FSS: MC MINNVILLE FLIGHT SERVICE STATION
Attendance: CONTINUOUS
Wind indicator: yes
Segmented circle: yes
Lights: FOR PERIMETER LGTS PHONE 503-230-6548

Heliport Communications

WX ASOS at PDX (4 nm N): PHONE (503) 493-7687
WX ASOS at VUO (6 nm N): 135.125 (360-696-1280)
WX ASOS at TTD (9 nm E): 135.625 (503-492-2887)
WX ASOS at HIO (14 nm W): PHONE 503-640-2984
WX ASOS at SPB (18 nm NW): 135.875 (503-543-6401)
WX ASOS at UAO (18 nm S): PHONE 503-678-3011

Nearby radio navigation aids

VOR radial/distance  VOR name  Freq  Var
BTGr163/13.2BATTLE GROUND VORTAC116.6021E
UBGr035/18.6NEWBERG VOR/DME117.4021E

 
NDB name  Hdg/Dist  Freq  Var  ID
BANKS093/19.235616EPND .--. -. -..
KELSO145/39.725617ELSO .-.. ... ---

Heliport Services

Runway Information

Helipad H1

Dimensions: 106 x 106 ft. / 32 x 32 m
Surface: concrete, in fair condition
Runway edge lights: PERI
Operational restrictions: ROOFTOP HELIPAD.
Latitude: 45-31.680833N
Longitude: 122-36.725500W
Elevation: 234.0 ft.
Traffic pattern: leftleft
Markings: none, in fair condition

Heliport Ownership and Management from official FAA records

Ownership: Privately-owned
Owner: PROVIDENCE PORTLAND MEDICAL CENTER
4805 N E GLISAN
PORTLAND, OR 97213
Phone 503-230-6548
Manager: RICH HILDRETH
4400 NE HALSEY STREET, BUILDING 1, SUITE 160
PORTLAND, OR 97213
Phone 503-215-6205

Additional Remarks

FOR CD CTC PORTLAND APCH AT 503-493-7545.

Instrument Procedures

There are no published instrument procedures at 34OR.

Some nearby airports with instrument procedures:

KPDX - Portland International Airport (4 nm N)
KVUO - Pearson Field Airport (6 nm N)
KTTD - Portland-Troutdale Airport (9 nm E)
KHIO - Portland-Hillsboro Airport (14 nm W)
KSPB - Scappoose Industrial Airpark (18 nm NW)
KUAO - Aurora State Airport (18 nm S)
 
Loc | Ops | Rwys | IFR | FBO | Links
Com | Nav | Svcs | Stats | Notes
Area around 34OR (Providence Portland Medical Center Heliport)
 
Road maps at: MapQuest Bing Google
 
Aerial photo
WARNING: Photo may not be current or correct
Aerial photo of 34OR (Providence Portland Medical Center Heliport)
Do you have a better or more recent aerial photo of Providence Portland Medical Center Heliport that you would like to share? If so, please send us your photo.

 
Sectional chart

 
Airport distance calculator
Flying to Providence Portland Medical Center Heliport? Find the distance to fly.

From to 34OR

Sunrise and sunset
Times for 14-Oct-2019
 Local
(UTC-7)
 Zulu
(UTC)
Morning civil twilight06:5713:57
Sunrise07:2714:27
Sunset18:2601:26
Evening civil twilight18:5601:56

Current date and time
Zulu (UTC)  14-Oct-2019 17:17:24
Local (UTC-7)  14-Oct-2019 10:17:24
 
METAR
KPDX 
3nm N 
141653Z 30005KT 1/4SM R10R/P6000FT BR OVC002 07/06 A3013 RMK AO2 SFC VIS 3/4 SLP201 T00720056
KVUO 
6nm N 
141653Z AUTO 30004KT 9SM OVC003 07/06 A3012 RMK AO2 SLP199 T00720061
KTTD 
8nm E 
141653Z 25003KT 4SM BR OVC002 08/07 A3012 RMK AO2 SLP198 T00780067
KHIO 
14nm W 
141653Z 00000KT 10SM VCFG CLR 07/05 A3011 RMK AO2 SLP198 T00670050
KSPB 
18nm NW 
141702Z AUTO 00000KT 1/2SM FG VV002 07/07 A3011 RMK AO2 T00670067
KUAO 
18nm S 
141653Z 00000KT 10SM CLR 10/06 A3012 RMK AO2 SLP199 T01000061
TAF
KPDX 
3nm N 
141610Z 1416/1512 VRB02KT 5SM BR SCT002 SCT100 TEMPO 1416/1418 1SM BR BKN002 FM141800 35002KT P6SM SCT015 BKN250 FM142200 32005KT P6SM SCT250 FM150400 VRB04KT P6SM SCT250
KTTD 
8nm E 
141611Z 1416/1512 00000KT 6SM BR SCT003 TEMPO 1416/1418 1 1/2SM BR BKN003 FM141800 00000KT P6SM SCT250 FM142100 06005KT P6SM SCT250 FM150600 10014G22KT P6SM BKN250
KHIO 
14nm W 
141357Z 1414/1512 00000KT 1/4SM FG VV001 FM141600 00000KT 6SM BR FEW004 FM141800 00000KT P6SM SCT250 FM142200 02004KT P6SM SCT250 FM150500 VRB02KT P6SM BKN250
KUAO 
18nm S 
141135Z 1412/1512 00000KT P6SM SCT030 FM142000 02003KT P6SM SCT250
NOTAMs
Click for the latest NOTAMs
NOTAMs are issued by the DoD/FAA and will open in a separate window not controlled by AirNav.

 

 
 

Would you like to see your business listed on this page?

 If your business provides an interesting product or service to pilots, flight crews, aircraft, or users of the Providence Portland Medical Center Heliport, you should consider listing it here.  To start the listing process, click on the button below
 
Add a business
 

Other Pages about Providence Portland Medical Center Heliport

Update a link
 
Copyright © AirNav, LLC. All rights reserved. Privacy Policy  Contact